createdAt,value
2024-04-19T00:01:15.612Z,2.80
2024-04-19T00:03:46.604Z,2.27
2024-04-19T00:06:14.712Z,2.13
2024-04-19T00:08:45.262Z,1.93
2024-04-19T00:11:13.315Z,1.97
2024-04-19T00:13:44.242Z,2.60
2024-04-19T00:16:14.780Z,1.87
2024-04-19T00:18:45.943Z,1.73
2024-04-19T00:21:14.374Z,2.20
2024-04-19T00:23:44.988Z,1.53
2024-04-19T00:26:12.974Z,2.03
2024-04-19T00:28:43.794Z,2.50
2024-04-19T00:31:14.823Z,3.27
2024-04-19T00:33:45.738Z,2.07
2024-04-19T00:36:16.784Z,2.47
2024-04-19T00:38:44.669Z,2.10
2024-04-19T00:41:17.790Z,2.43
2024-04-19T00:43:45.800Z,2.13
2024-04-19T00:46:19.855Z,2.47
2024-04-19T00:48:48.810Z,2.20
2024-04-19T00:51:19.574Z,2.17
2024-04-19T00:53:47.558Z,2.10
2024-04-19T00:56:34.481Z,2.00
2024-04-19T00:59:02.582Z,2.27
2024-04-19T01:01:36.622Z,3.00
2024-04-19T01:04:04.749Z,2.20
2024-04-19T01:06:35.343Z,2.70
2024-04-19T01:09:08.675Z,2.10
2024-04-19T01:11:39.307Z,1.33
2024-04-19T01:14:07.380Z,1.90
2024-04-19T01:16:40.879Z,1.83
2024-04-19T01:19:09.499Z,1.77
2024-04-19T01:21:40.833Z,2.20
2024-04-19T01:24:14.157Z,1.83
2024-04-19T01:26:47.625Z,2.20
2024-04-19T01:29:15.601Z,3.33
2024-04-19T01:31:46.327Z,3.57
2024-04-19T01:34:14.429Z,2.97
2024-04-19T01:36:45.223Z,3.47
2024-04-19T01:39:13.327Z,3.60
2024-04-19T01:41:43.887Z,2.67
2024-04-19T01:44:14.983Z,2.87
2024-04-19T01:46:45.812Z,2.30
2024-04-19T01:49:13.908Z,2.37
2024-04-19T01:51:44.397Z,2.67
2024-04-19T01:54:12.449Z,2.80
2024-04-19T01:56:43.241Z,3.07
2024-04-19T01:59:11.408Z,2.20
2024-04-19T02:01:44.985Z,3.27
2024-04-19T02:04:13.010Z,2.50
2024-04-19T02:06:43.552Z,3.40
2024-04-19T02:09:31.630Z,1.80
2024-04-19T02:12:02.511Z,1.87
2024-04-19T02:14:31.786Z,2.03
2024-04-19T02:17:06.821Z,2.00
2024-04-19T02:19:37.769Z,1.50
2024-04-19T02:22:08.804Z,2.17
2024-04-19T02:24:38.088Z,1.80
2024-04-19T02:27:19.710Z,2.10
2024-04-19T02:30:06.521Z,1.87
2024-04-19T02:32:40.196Z,1.83
2024-04-19T02:35:10.780Z,2.07
2024-04-19T02:37:41.829Z,2.23
2024-04-19T02:40:12.894Z,1.90
2024-04-19T02:42:43.986Z,1.70
2024-04-19T02:45:14.914Z,2.30
2024-04-19T02:47:48.136Z,1.93
2024-04-19T02:50:19.004Z,1.83
2024-04-19T02:52:49.760Z,1.53
2024-04-19T02:55:21.229Z,1.80
2024-04-19T02:57:52.255Z,1.60
2024-04-19T03:00:42.816Z,1.67
2024-04-19T03:03:18.192Z,2.00
2024-04-19T03:05:49.074Z,1.70
2024-04-19T03:08:26.206Z,2.17
2024-04-19T03:11:07.579Z,1.53
2024-04-19T03:13:38.004Z,2.20
2024-04-19T03:16:09.689Z,1.80
2024-04-19T03:18:48.944Z,1.57
2024-04-19T03:21:19.476Z,2.07
2024-04-19T03:23:50.535Z,2.13
2024-04-19T03:26:21.335Z,2.07
2024-04-19T03:28:54.375Z,2.07
2024-04-19T03:31:25.158Z,2.47
2024-04-19T03:33:58.653Z,1.67
2024-04-19T03:36:29.766Z,1.73
2024-04-19T03:39:00.727Z,1.63
2024-04-19T03:41:34.798Z,2.03
2024-04-19T03:44:21.804Z,2.13
2024-04-19T03:46:52.401Z,2.00
2024-04-19T03:49:26.858Z,1.37
2024-04-19T03:51:57.906Z,1.47
2024-04-19T03:54:29.155Z,1.60
2024-04-19T03:56:59.791Z,1.93
2024-04-19T03:59:30.734Z,1.13
2024-04-19T04:02:17.408Z,1.90
2024-04-19T04:05:02.889Z,1.73
2024-04-19T04:07:47.274Z,1.10
2024-04-19T04:10:24.392Z,1.47
2024-04-19T04:12:57.683Z,1.57
2024-04-19T04:15:29.067Z,1.43
2024-04-19T04:18:02.386Z,1.40
2024-04-19T04:20:36.175Z,1.13
2024-04-19T04:23:06.992Z,1.30
2024-04-19T04:25:38.882Z,1.40
2024-04-19T04:28:10.939Z,1.57
2024-04-19T04:30:43.448Z,1.17
2024-04-19T04:33:16.918Z,1.40
2024-04-19T04:35:51.712Z,1.93
2024-04-19T04:38:22.423Z,1.23
2024-04-19T04:40:53.363Z,1.63
2024-04-19T04:43:23.919Z,1.30
2024-04-19T04:45:55.182Z,1.80
2024-04-19T04:48:26.308Z,1.90
2024-04-19T04:51:01.217Z,1.57
2024-04-19T04:53:31.981Z,1.30
2024-04-19T04:56:03.095Z,1.53
2024-04-19T04:58:33.762Z,1.00
2024-04-19T05:01:04.954Z,1.67
2024-04-19T05:03:35.979Z,1.30
2024-04-19T05:06:09.646Z,1.47
2024-04-19T05:08:46.823Z,1.60
2024-04-19T05:11:25.764Z,1.50
2024-04-19T05:13:56.487Z,1.83
2024-04-19T05:16:27.626Z,1.33
2024-04-19T05:18:58.736Z,1.77
2024-04-19T05:21:32.759Z,1.80
2024-04-19T05:24:03.971Z,1.57
2024-04-19T05:26:35.129Z,1.43
2024-04-19T05:29:07.020Z,1.53
2024-04-19T05:31:39.807Z,1.60
2024-04-19T05:34:10.356Z,1.50
2024-04-19T05:36:43.603Z,1.73
2024-04-19T05:39:14.575Z,2.00
2024-04-19T05:41:45.320Z,1.57
2024-04-19T05:44:20.302Z,1.90
2024-04-19T05:46:51.158Z,1.90
2024-04-19T05:49:24.012Z,1.63
2024-04-19T05:51:57.653Z,2.10
2024-04-19T05:54:28.163Z,1.27
2024-04-19T05:56:58.880Z,1.57
2024-04-19T05:59:29.251Z,1.53
2024-04-19T06:01:59.736Z,2.03
2024-04-19T06:04:39.324Z,1.17
2024-04-19T06:07:29.003Z,1.20
2024-04-19T06:10:06.889Z,1.50
2024-04-19T06:12:38.037Z,1.50
2024-04-19T06:15:09.742Z,1.53
2024-04-19T06:17:40.767Z,1.23
2024-04-19T06:20:11.834Z,1.80
2024-04-19T06:22:45.518Z,1.67
2024-04-19T06:25:16.399Z,2.20
2024-04-19T06:27:47.357Z,3.83
2024-04-19T06:30:18.298Z,1.80
2024-04-19T06:32:49.140Z,1.10
2024-04-19T06:35:20.339Z,1.53
2024-04-19T06:37:55.151Z,1.80
2024-04-19T06:40:25.819Z,1.57
2024-04-19T06:42:56.817Z,1.90
2024-04-19T06:45:27.749Z,1.83
2024-04-19T06:47:59.240Z,1.43
2024-04-19T06:50:34.379Z,2.27
2024-04-19T06:53:10.808Z,2.37
2024-04-19T06:55:41.826Z,1.67
2024-04-19T06:58:12.407Z,2.20
2024-04-19T07:00:59.488Z,1.73
2024-04-19T07:03:35.999Z,1.43
2024-04-19T07:06:20.312Z,1.23
2024-04-19T07:09:00.928Z,2.10
2024-04-19T07:11:32.116Z,1.70
2024-04-19T07:14:03.102Z,2.13
2024-04-19T07:16:36.228Z,1.73
2024-04-19T07:19:07.532Z,1.70
2024-04-19T07:21:38.549Z,1.97
2024-04-19T07:24:13.861Z,2.20
2024-04-19T07:26:44.736Z,1.60
2024-04-19T07:29:17.114Z,1.40
2024-04-19T07:31:49.297Z,2.20
2024-04-19T07:34:19.730Z,1.97
2024-04-19T07:36:52.037Z,1.77
2024-04-19T07:39:25.199Z,1.83
2024-04-19T07:41:57.215Z,2.00
2024-04-19T07:44:27.633Z,1.23
2024-04-19T07:47:01.290Z,1.77
2024-04-19T07:49:32.265Z,1.13
2024-04-19T07:52:02.884Z,2.07
2024-04-19T07:54:35.996Z,1.57
2024-04-19T07:57:17.042Z,2.10
2024-04-19T07:59:54.440Z,1.73
2024-04-19T08:02:25.249Z,1.90
2024-04-19T08:04:55.791Z,1.70
2024-04-19T08:07:40.655Z,1.40
2024-04-19T08:10:30.748Z,1.57
2024-04-19T08:13:23.904Z,1.70
2024-04-19T08:16:01.659Z,1.60
2024-04-19T08:18:33.611Z,1.70
2024-04-19T08:21:04.192Z,1.30
2024-04-19T08:23:34.757Z,1.20
2024-04-19T08:26:08.116Z,1.37
2024-04-19T08:28:39.006Z,1.67
2024-04-19T08:31:10.056Z,1.63
2024-04-19T08:33:41.130Z,1.40
2024-04-19T08:36:11.989Z,1.63
2024-04-19T08:38:44.049Z,1.47
2024-04-19T08:41:32.895Z,1.83
2024-04-19T08:44:11.775Z,1.67
2024-04-19T08:46:42.866Z,2.10
2024-04-19T08:49:14.251Z,1.47
2024-04-19T08:52:00.642Z,1.50
2024-04-19T08:54:36.505Z,1.23
2024-04-19T08:57:10.461Z,1.00
2024-04-19T09:00:01.546Z,1.60
2024-04-19T09:02:46.450Z,2.00
2024-04-19T09:05:17.027Z,1.63
2024-04-19T09:07:56.745Z,2.00
2024-04-19T09:10:27.384Z,1.70
2024-04-19T09:13:02.373Z,1.87
2024-04-19T09:15:34.020Z,1.50
2024-04-19T09:18:05.591Z,2.37
2024-04-19T09:20:36.218Z,1.70
2024-04-19T09:23:06.714Z,2.05
2024-04-19T09:25:39.849Z,2.33
2024-04-19T09:28:16.695Z,1.95
2024-04-19T09:30:47.844Z,2.35
2024-04-19T09:33:21.254Z,1.93
2024-04-19T09:35:54.215Z,1.63
2024-04-19T09:38:25.180Z,1.60
2024-04-19T09:40:55.983Z,1.88
2024-04-19T09:43:30.276Z,1.92
2024-04-19T09:46:01.135Z,1.33
2024-04-19T09:48:34.138Z,1.58
2024-04-19T09:51:08.356Z,1.63
2024-04-19T09:53:42.178Z,2.03
2024-04-19T09:56:16.382Z,1.73
2024-04-19T09:58:50.318Z,1.80
2024-04-19T10:01:21.484Z,1.80
2024-04-19T10:03:52.371Z,1.30
2024-04-19T10:06:24.747Z,1.77
2024-04-19T10:08:55.364Z,1.70
2024-04-19T10:11:26.588Z,1.73
2024-04-19T10:13:59.914Z,1.73
2024-04-19T10:16:30.349Z,1.70
2024-04-19T10:19:01.010Z,1.50
2024-04-19T10:21:31.845Z,1.70
2024-04-19T10:24:02.323Z,1.47
2024-04-19T10:26:32.988Z,1.17
2024-04-19T10:29:06.138Z,1.53
2024-04-19T10:31:38.407Z,1.90
2024-04-19T10:34:11.596Z,1.40
2024-04-19T10:36:42.334Z,1.40
2024-04-19T10:39:14.074Z,1.77
2024-04-19T10:41:48.478Z,1.33
2024-04-19T10:44:21.620Z,1.37
2024-04-19T10:46:52.780Z,1.77
2024-04-19T10:49:26.220Z,2.03
2024-04-19T10:51:56.963Z,1.30
2024-04-19T10:54:28.031Z,1.80
2024-04-19T10:57:01.444Z,2.00
2024-04-19T10:59:34.756Z,1.57
2024-04-19T11:02:05.309Z,1.23
2024-04-19T11:04:36.111Z,1.53
2024-04-19T11:07:13.849Z,1.93
2024-04-19T11:09:53.114Z,0.70
2024-04-19T11:12:24.723Z,1.60
2024-04-19T11:14:58.684Z,0.63
2024-04-19T11:17:29.130Z,1.20
2024-04-19T11:19:59.959Z,1.57
2024-04-19T11:22:30.488Z,1.40
2024-04-19T11:25:01.814Z,1.90
2024-04-19T11:27:32.876Z,1.50
2024-04-19T11:30:06.252Z,1.40
2024-04-19T11:32:38.727Z,1.37
2024-04-19T11:35:11.969Z,1.30
2024-04-19T11:37:42.591Z,1.50
2024-04-19T11:40:23.485Z,1.70
2024-04-19T11:42:54.792Z,1.30
2024-04-19T11:45:29.835Z,1.73
2024-04-19T11:48:02.788Z,1.27
2024-04-19T11:50:33.488Z,1.77
2024-04-19T11:53:04.005Z,1.75
2024-04-19T11:55:34.789Z,1.88
2024-04-19T11:58:05.265Z,1.75
2024-04-19T12:00:38.583Z,1.15
2024-04-19T12:03:09.452Z,1.48
2024-04-19T12:05:42.611Z,1.25
2024-04-19T12:08:21.638Z,1.50
2024-04-19T12:10:52.598Z,1.23
2024-04-19T12:16:31.143Z,1.13
2024-04-19T12:18:50.035Z,1.13
2024-04-19T12:21:22.145Z,0.57
2024-04-19T12:23:54.376Z,1.33
2024-04-19T12:26:26.547Z,1.20
2024-04-19T12:28:57.270Z,1.27
2024-04-19T12:31:30.572Z,0.83
2024-04-19T12:34:01.130Z,0.77
2024-04-19T12:36:31.687Z,1.03
2024-04-19T12:39:02.297Z,1.17
2024-04-19T12:41:33.400Z,1.10
2024-04-19T12:44:04.676Z,1.37
2024-04-19T12:46:48.618Z,0.83
2024-04-19T12:49:22.597Z,1.27
2024-04-19T12:51:56.372Z,1.33
2024-04-19T12:54:27.102Z,1.20
2024-04-19T12:56:57.746Z,0.77
2024-04-19T12:59:28.240Z,0.80
2024-04-19T13:02:01.621Z,0.40
2024-04-19T13:04:32.797Z,1.13
2024-04-19T13:07:03.708Z,1.13
2024-04-19T13:09:34.304Z,1.23
2024-04-19T13:12:05.316Z,0.40
2024-04-19T13:14:35.817Z,0.63
2024-04-19T13:17:09.168Z,1.17
2024-04-19T13:19:39.696Z,0.73
2024-04-19T13:22:10.390Z,0.70
2024-04-19T13:24:40.943Z,0.37
2024-04-19T13:27:11.577Z,0.70
2024-04-19T13:29:42.112Z,0.37
2024-04-19T13:32:15.310Z,0.50
2024-04-19T13:34:45.928Z,0.90
2024-04-19T13:37:18.419Z,0.60
2024-04-19T13:39:49.238Z,0.60
2024-04-19T13:42:19.882Z,1.13
2024-04-19T13:44:50.710Z,1.17
2024-04-19T13:47:24.160Z,0.57
2024-04-19T13:49:56.114Z,0.40
2024-04-19T13:52:26.975Z,1.13
2024-04-19T13:54:57.492Z,0.90
2024-04-19T13:57:28.573Z,0.73
2024-04-19T13:59:59.114Z,1.00
2024-04-19T14:02:32.597Z,0.77
2024-04-19T14:05:03.370Z,1.03
2024-04-19T14:07:33.962Z,1.20
2024-04-19T14:10:04.782Z,0.80
2024-04-19T14:12:38.445Z,1.13
2024-04-19T14:15:10.088Z,0.60
2024-04-19T14:17:43.498Z,1.00
2024-04-19T14:20:14.216Z,0.67
2024-04-19T14:22:44.981Z,0.53
2024-04-19T14:25:15.734Z,1.00
2024-04-19T14:27:48.094Z,0.97
2024-04-19T14:30:18.860Z,1.03
2024-04-19T14:32:52.215Z,0.40
2024-04-19T14:35:23.069Z,0.70
2024-04-19T14:37:54.571Z,1.03
2024-04-19T14:40:25.136Z,0.97
2024-04-19T14:42:58.809Z,0.73
2024-04-19T14:45:29.503Z,0.67
2024-04-19T14:48:02.904Z,0.73
2024-04-19T14:50:33.402Z,0.80
2024-04-19T14:53:09.945Z,0.83
2024-04-19T14:55:41.433Z,1.10
2024-04-19T14:58:12.030Z,0.60
2024-04-19T15:00:42.746Z,0.43
2024-04-19T15:03:16.469Z,0.73
2024-04-19T15:05:46.859Z,1.10
2024-04-19T15:08:17.471Z,0.60
2024-04-19T15:10:48.087Z,0.87
2024-04-19T15:13:18.874Z,0.50
2024-04-19T15:15:49.339Z,0.47
2024-04-19T15:18:22.658Z,0.60
2024-04-19T15:20:53.316Z,1.17
2024-04-19T15:23:24.032Z,0.80
2024-04-19T15:25:54.654Z,1.10
2024-04-19T15:28:25.392Z,1.60
2024-04-19T15:30:56.071Z,1.40
2024-04-19T15:33:29.422Z,1.10
2024-04-19T15:36:00.647Z,0.83
2024-04-19T15:38:31.414Z,0.27
2024-04-19T15:41:01.962Z,0.70
2024-04-19T15:43:34.837Z,0.40
2024-04-19T15:46:06.183Z,0.37
2024-04-19T15:48:39.418Z,0.20
2024-04-19T15:51:10.216Z,0.40
2024-04-19T15:53:42.225Z,0.40
2024-04-19T15:56:12.638Z,0.73
2024-04-19T15:58:43.271Z,0.37
2024-04-19T16:01:15.085Z,0.80
2024-04-19T16:03:48.492Z,0.80
2024-04-19T16:06:19.133Z,0.40
2024-04-19T16:08:50.215Z,0.80
2024-04-19T16:11:20.746Z,1.00
2024-04-19T16:13:53.156Z,1.13
2024-04-19T16:16:23.800Z,0.63
2024-04-19T16:18:57.315Z,0.63
2024-04-19T16:21:27.896Z,0.80
2024-04-19T16:23:59.702Z,1.00
2024-04-19T16:26:30.637Z,0.83
2024-04-19T16:29:01.512Z,0.57
2024-04-19T16:31:33.842Z,1.03
2024-04-19T16:34:08.323Z,0.70
2024-04-19T16:36:40.204Z,0.40
2024-04-19T16:39:11.211Z,0.90
2024-04-19T16:41:44.570Z,0.60
2024-04-19T16:44:15.171Z,0.37
2024-04-19T16:46:45.747Z,0.90
2024-04-19T16:49:18.921Z,1.57
2024-04-19T16:51:49.483Z,1.00
2024-04-19T16:54:20.134Z,0.40
2024-04-19T16:56:50.634Z,0.60
2024-04-19T16:59:21.400Z,1.03
2024-04-19T17:01:52.127Z,0.90
2024-04-19T17:04:25.627Z,0.70
2024-04-19T17:06:58.693Z,0.77
2024-04-19T17:09:29.565Z,0.47
2024-04-19T17:12:00.791Z,0.83
2024-04-19T17:14:32.282Z,0.90
2024-04-19T17:17:02.941Z,0.80
2024-04-19T17:19:36.524Z,1.00
2024-04-19T17:22:07.262Z,0.70
2024-04-19T17:24:39.120Z,0.90
2024-04-19T17:27:07.000Z,1.13
2024-04-19T17:29:39.589Z,0.57
2024-04-19T17:32:10.343Z,0.70
2024-04-19T17:34:45.279Z,0.93
2024-04-19T17:37:17.398Z,1.00
2024-04-19T17:39:49.927Z,0.90
2024-04-19T17:42:20.691Z,0.80
2024-04-19T17:44:52.047Z,1.10
2024-04-19T17:47:23.338Z,1.00
2024-04-19T17:49:58.909Z,0.77
2024-04-19T17:52:33.991Z,0.70
2024-04-19T17:55:04.773Z,0.93
2024-04-19T17:57:36.005Z,1.43
2024-04-19T18:00:07.177Z,0.30
2024-04-19T18:02:39.675Z,0.70
2024-04-19T18:05:13.345Z,0.63
2024-04-19T18:07:43.846Z,0.40
2024-04-19T18:10:15.954Z,0.67
2024-04-19T18:12:46.364Z,0.53
2024-04-19T18:15:20.296Z,0.50
2024-04-19T18:17:51.445Z,0.60
2024-04-19T18:20:24.891Z,0.60
2024-04-19T18:22:56.766Z,0.53
2024-04-19T18:25:27.994Z,1.63
2024-04-19T18:27:58.916Z,0.60
2024-04-19T18:30:31.614Z,1.10
2024-04-19T18:33:05.134Z,1.33
2024-04-19T18:35:38.710Z,1.17
2024-04-19T18:38:10.175Z,0.90
2024-04-19T18:40:42.442Z,1.37
2024-04-19T18:43:13.973Z,1.00
2024-04-19T18:45:47.835Z,1.17
2024-04-19T18:48:18.690Z,1.07
2024-04-19T18:50:52.146Z,1.03
2024-04-19T18:53:24.056Z,1.40
2024-04-19T18:55:55.894Z,1.67
2024-04-19T18:58:26.715Z,1.00
2024-04-19T19:00:57.298Z,1.37
2024-04-19T19:03:29.620Z,1.10
2024-04-19T19:06:02.988Z,1.40
2024-04-19T19:08:33.473Z,0.93
2024-04-19T19:11:06.398Z,1.10
2024-04-19T19:13:37.306Z,1.30
2024-04-19T19:16:08.614Z,0.70
2024-04-19T19:18:39.458Z,0.47
2024-04-19T19:21:12.745Z,0.80
2024-04-19T19:23:45.992Z,0.80
2024-04-19T19:26:16.529Z,1.10
2024-04-19T19:28:49.518Z,0.93
2024-04-19T19:31:20.089Z,0.90
2024-04-19T19:33:50.879Z,0.70
2024-04-19T19:36:24.197Z,1.17
2024-04-19T19:38:55.107Z,0.60
2024-04-19T19:41:25.592Z,0.87
2024-04-19T19:43:55.950Z,0.87
2024-04-19T19:46:26.491Z,0.60
2024-04-19T19:48:57.109Z,0.90
2024-04-19T19:51:33.454Z,0.70
2024-04-19T19:54:06.242Z,0.57
2024-04-19T19:56:37.038Z,0.50
2024-04-19T19:59:07.590Z,0.60
2024-04-19T20:01:54.057Z,0.73
2024-04-19T20:04:40.963Z,0.63
2024-04-19T20:07:14.278Z,0.90
2024-04-19T20:09:47.878Z,0.93
2024-04-19T20:12:19.763Z,0.80
2024-04-19T20:14:50.512Z,1.13
2024-04-19T20:17:21.815Z,1.20
2024-04-19T20:19:52.439Z,1.20
2024-04-19T20:22:25.751Z,1.20
2024-04-19T20:24:59.786Z,1.07
2024-04-19T20:27:30.477Z,1.03
2024-04-19T20:30:00.982Z,0.90
2024-04-19T20:32:34.429Z,0.80
2024-04-19T20:35:05.085Z,0.77
2024-04-19T20:37:38.399Z,2.03
2024-04-19T20:40:13.130Z,1.40
2024-04-19T20:42:44.056Z,1.27
2024-04-19T20:45:14.683Z,1.40
2024-04-19T20:47:48.472Z,1.13
2024-04-19T20:50:20.169Z,1.60
2024-04-19T20:52:54.950Z,1.63
2024-04-19T20:55:25.663Z,1.23
2024-04-19T20:57:56.232Z,1.47
2024-04-19T21:00:31.717Z,1.17
2024-04-19T21:03:03.454Z,1.53
2024-04-19T21:05:34.993Z,0.70
2024-04-19T21:08:09.005Z,1.20
2024-04-19T21:10:46.307Z,1.43
2024-04-19T21:13:19.444Z,1.30
2024-04-19T21:16:09.489Z,1.27
2024-04-19T21:18:46.649Z,0.80
2024-04-19T21:21:18.240Z,1.20
2024-04-19T21:23:57.216Z,0.90
2024-04-19T21:26:28.231Z,1.10
2024-04-19T21:28:58.751Z,1.50
2024-04-19T21:31:29.248Z,1.20
2024-04-19T21:34:00.008Z,1.10
2024-04-19T21:36:31.961Z,1.53
2024-04-19T21:39:05.222Z,1.17
2024-04-19T21:41:37.699Z,1.33
2024-04-19T21:44:08.330Z,1.60
2024-04-19T21:46:40.127Z,1.30
2024-04-19T21:49:11.305Z,1.27
2024-04-19T21:51:41.916Z,1.13
2024-04-19T21:54:17.328Z,1.67
2024-04-19T21:56:47.835Z,1.07
2024-04-19T21:59:18.491Z,1.47
2024-04-19T22:01:49.498Z,1.63
2024-04-19T22:04:20.579Z,1.07
2024-04-19T22:06:51.614Z,1.30
2024-04-19T22:09:25.265Z,1.93
2024-04-19T22:11:56.415Z,1.20
2024-04-19T22:14:27.073Z,1.17
2024-04-19T22:17:05.298Z,1.03
2024-04-19T22:19:39.146Z,1.27
2024-04-19T22:22:13.388Z,1.30
2024-04-19T22:24:50.543Z,1.33
2024-04-19T22:27:21.547Z,1.23
2024-04-19T22:29:52.209Z,1.33
2024-04-19T22:32:22.729Z,1.10
2024-04-19T22:34:53.708Z,1.40
2024-04-19T22:37:24.363Z,1.23
2024-04-19T22:39:58.839Z,1.20
2024-04-19T22:42:29.577Z,1.13
2024-04-19T22:45:00.619Z,1.47
2024-04-19T22:47:31.320Z,1.43
2024-04-19T22:50:03.235Z,0.90
2024-04-19T22:52:33.569Z,0.97
2024-04-19T22:55:07.006Z,1.03
2024-04-19T22:57:37.992Z,1.43
2024-04-19T23:00:11.836Z,1.13
2024-04-19T23:02:42.324Z,1.60
2024-04-19T23:05:12.949Z,1.33
2024-04-19T23:07:43.527Z,1.13
2024-04-19T23:10:16.693Z,1.20
2024-04-19T23:12:47.243Z,1.23
2024-04-19T23:15:19.243Z,1.63
2024-04-19T23:17:50.296Z,0.80
2024-04-19T23:20:21.458Z,0.90
2024-04-19T23:22:51.893Z,1.20
2024-04-19T23:25:25.304Z,1.30
2024-04-19T23:27:56.060Z,0.90
2024-04-19T23:30:26.582Z,1.43
2024-04-19T23:32:57.260Z,1.30
2024-04-19T23:35:27.791Z,1.40
2024-04-19T23:37:58.553Z,1.40
2024-04-19T23:40:31.742Z,1.67
2024-04-19T23:43:02.303Z,1.33
2024-04-19T23:45:33.195Z,1.30
2024-04-19T23:48:03.712Z,1.30
2024-04-19T23:50:35.897Z,1.20
2024-04-19T23:53:07.616Z,1.80
2024-04-19T23:55:40.680Z,1.37
2024-04-19T23:58:11.121Z,1.00
